AAL3061 KMIA-KPHL
Flight info
| Callsign | AAL3061 |
|---|---|
| Flight time | 2h 24m |
| Altitude | 35000 |
| Route | FOLZZ3 ALYRA PELCN Y309 FLRDA IDOLS SKARP Q101 KALDA ZJAAY JIIMS4 |
| Aircraft | A321/M-SDE3FGHIRWY/LB1 |
Departure
| Time | 2026-05-05 19:37 |
|---|---|
| Airport | Miami International Airport (KMIA) |
Arrival
| Time | 2026-05-05 22:01 |
|---|---|
| Airport | Philadelphia International Airport (KPHL) |
| Time | Latitude | Longitude | Altitude | Speed | Heading |
|---|---|---|---|---|---|
| 2026-05-05 19:05 | 25.79823 | -80.28370 | 15 ft | 0 kts | 177° |
| 2026-05-05 19:22 | 25.79846 | -80.28370 | 16 ft | 4 kts | 188° |
| 2026-05-05 19:23 | 25.79872 | -80.28362 | 18 ft | 4 kts | 214° |
| 2026-05-05 19:23 | 25.79886 | -80.28343 | 16 ft | 2 kts | 265° |
| 2026-05-05 19:23 | 25.79887 | -80.28341 | 16 ft | 0 kts | 267° |
| 2026-05-05 19:29 | 25.79886 | -80.28346 | 15 ft | 1 kts | 267° |
| 2026-05-05 19:29 | 25.79886 | -80.28360 | 15 ft | 2 kts | 267° |
| 2026-05-05 19:30 | 25.79885 | -80.28383 | 15 ft | 4 kts | 271° |
| 2026-05-05 19:30 | 25.79900 | -80.28425 | 16 ft | 7 kts | 299° |
| 2026-05-05 19:30 | 25.79928 | -80.28474 | 15 ft | 8 kts | 303° |
| 2026-05-05 19:30 | 25.79966 | -80.28524 | 15 ft | 9 kts | 324° |
| 2026-05-05 19:31 | 25.80016 | -80.28562 | 15 ft | 9 kts | 300° |
| 2026-05-05 19:31 | 25.80022 | -80.28631 | 16 ft | 9 kts | 269° |
| 2026-05-05 19:31 | 25.80020 | -80.28702 | 16 ft | 9 kts | 268° |
| 2026-05-05 19:31 | 25.80017 | -80.28776 | 17 ft | 10 kts | 268° |
| 2026-05-05 19:32 | 25.80014 | -80.28856 | 16 ft | 11 kts | 267° |
| 2026-05-05 19:32 | 25.80011 | -80.28946 | 16 ft | 12 kts | 267° |
| 2026-05-05 19:32 | 25.80007 | -80.29042 | 16 ft | 13 kts | 267° |
| 2026-05-05 19:32 | 25.80002 | -80.29143 | 16 ft | 13 kts | 267° |
| 2026-05-05 19:33 | 25.79997 | -80.29248 | 16 ft | 14 kts | 267° |
| 2026-05-05 19:33 | 25.79994 | -80.29323 | 16 ft | 15 kts | 267° |
| 2026-05-05 19:33 | 25.79989 | -80.29444 | 14 ft | 16 kts | 267° |
| 2026-05-05 19:33 | 25.79984 | -80.29573 | 14 ft | 17 kts | 267° |
| 2026-05-05 19:34 | 25.79979 | -80.29708 | 14 ft | 18 kts | 268° |
| 2026-05-05 19:34 | 25.79972 | -80.29846 | 14 ft | 18 kts | 267° |
| 2026-05-05 19:34 | 25.79969 | -80.29952 | 13 ft | 0 kts | 270° |
| 2026-05-05 19:35 | 25.79969 | -80.29960 | 13 ft | 3 kts | 270° |
| 2026-05-05 19:35 | 25.79972 | -80.30027 | 13 ft | 11 kts | 277° |
| 2026-05-05 19:35 | 25.79999 | -80.30104 | 14 ft | 11 kts | 307° |
| 2026-05-05 19:35 | 25.80062 | -80.30113 | 14 ft | 10 kts | 44° |
| 2026-05-05 19:36 | 25.80074 | -80.30026 | 13 ft | 16 kts | 87° |
| 2026-05-05 19:36 | 25.80091 | -80.29637 | 14 ft | 85 kts | 87° |
| 2026-05-05 19:36 | 25.80130 | -80.28763 | 18 ft | 140 kts | 87° |
| 2026-05-05 19:36 | 25.80177 | -80.27531 | 145 ft | 170 kts | 88° |
| 2026-05-05 19:37 | 25.80201 | -80.26234 | 880 ft | 169 kts | 91° |
| 2026-05-05 19:37 | 25.79964 | -80.24925 | 1679 ft | 178 kts | 109° |
| 2026-05-05 19:37 | 25.79467 | -80.23641 | 2401 ft | 187 kts | 113° |
| 2026-05-05 19:37 | 25.78873 | -80.22292 | 2776 ft | 203 kts | 116° |
| 2026-05-05 19:38 | 25.78182 | -80.20821 | 2964 ft | 228 kts | 117° |
| 2026-05-05 19:38 | 25.77406 | -80.19184 | 3194 ft | 251 kts | 117° |
| 2026-05-05 19:38 | 25.76560 | -80.17400 | 3516 ft | 269 kts | 118° |
| 2026-05-05 19:38 | 25.75651 | -80.15561 | 4103 ft | 275 kts | 119° |
| 2026-05-05 19:39 | 25.74710 | -80.13681 | 4689 ft | 282 kts | 117° |
| 2026-05-05 19:39 | 25.74209 | -80.11585 | 5305 ft | 285 kts | 87° |
| 2026-05-05 19:39 | 25.74742 | -80.09494 | 5949 ft | 285 kts | 55° |
| 2026-05-05 19:39 | 25.75973 | -80.07809 | 6613 ft | 286 kts | 46° |
| 2026-05-05 19:40 | 25.77297 | -80.06145 | 7252 ft | 290 kts | 46° |
| 2026-05-05 19:40 | 25.78646 | -80.04459 | 7871 ft | 294 kts | 46° |
| 2026-05-05 19:40 | 25.80007 | -80.02747 | 8481 ft | 298 kts | 46° |
| 2026-05-05 19:40 | 25.81385 | -80.01008 | 9086 ft | 302 kts | 46° |
| 2026-05-05 19:41 | 25.82781 | -79.99242 | 9684 ft | 306 kts | 46° |
| 2026-05-05 19:41 | 25.84195 | -79.97448 | 10218 ft | 312 kts | 46° |
| 2026-05-05 19:41 | 25.85677 | -79.95571 | 10349 ft | 333 kts | 46° |
| 2026-05-05 19:41 | 25.87251 | -79.93577 | 10471 ft | 353 kts | 46° |
| 2026-05-05 19:42 | 25.88911 | -79.91472 | 10592 ft | 372 kts | 46° |
| 2026-05-05 19:42 | 25.90653 | -79.89261 | 10735 ft | 388 kts | 46° |
| 2026-05-05 19:42 | 25.92445 | -79.86980 | 11153 ft | 394 kts | 46° |
| 2026-05-05 19:42 | 25.94256 | -79.84670 | 11655 ft | 398 kts | 46° |
| 2026-05-05 19:43 | 25.96078 | -79.82341 | 12180 ft | 401 kts | 46° |
| 2026-05-05 19:43 | 25.97916 | -79.79989 | 12694 ft | 405 kts | 46° |
| 2026-05-05 19:43 | 25.99768 | -79.77618 | 13212 ft | 408 kts | 46° |
| 2026-05-05 19:43 | 26.01640 | -79.75224 | 13730 ft | 411 kts | 46° |
| 2026-05-05 19:44 | 26.03501 | -79.72848 | 14206 ft | 415 kts | 46° |
| 2026-05-05 19:44 | 26.05403 | -79.70423 | 14686 ft | 417 kts | 46° |
| 2026-05-05 19:44 | 26.07314 | -79.67982 | 15185 ft | 419 kts | 46° |
| 2026-05-05 19:44 | 26.09234 | -79.65528 | 15682 ft | 422 kts | 45° |
| 2026-05-05 19:45 | 26.11102 | -79.62996 | 16178 ft | 426 kts | 51° |
| 2026-05-05 19:45 | 26.12821 | -79.60291 | 16676 ft | 429 kts | 51° |
| 2026-05-05 19:45 | 26.14542 | -79.57576 | 17174 ft | 431 kts | 51° |
| 2026-05-05 19:45 | 26.16280 | -79.54837 | 17657 ft | 434 kts | 51° |
| 2026-05-05 19:46 | 26.18025 | -79.52088 | 18126 ft | 436 kts | 51° |
| 2026-05-05 19:46 | 26.19780 | -79.49323 | 18549 ft | 439 kts | 51° |
| 2026-05-05 19:46 | 26.21547 | -79.46536 | 18928 ft | 442 kts | 50° |
| 2026-05-05 19:46 | 26.23324 | -79.43738 | 19287 ft | 444 kts | 50° |
| 2026-05-05 19:47 | 26.25115 | -79.40917 | 19646 ft | 447 kts | 50° |
| 2026-05-05 19:47 | 26.26917 | -79.38080 | 19987 ft | 450 kts | 49° |
| 2026-05-05 19:47 | 26.28936 | -79.35434 | 20319 ft | 447 kts | 40° |
| 2026-05-05 19:47 | 26.31294 | -79.33211 | 20651 ft | 443 kts | 30° |
| 2026-05-05 19:48 | 26.33874 | -79.31353 | 20988 ft | 443 kts | 27° |
| 2026-05-05 19:48 | 26.36484 | -79.29513 | 21326 ft | 445 kts | 27° |
| 2026-05-05 19:48 | 26.39107 | -79.27656 | 21656 ft | 447 kts | 27° |
| 2026-05-05 19:48 | 26.41740 | -79.25783 | 21981 ft | 450 kts | 27° |
| 2026-05-05 19:49 | 26.44382 | -79.23898 | 22286 ft | 452 kts | 27° |
| 2026-05-05 19:49 | 26.47037 | -79.22003 | 22616 ft | 454 kts | 27° |
| 2026-05-05 19:49 | 26.49702 | -79.20100 | 22928 ft | 456 kts | 26° |
| 2026-05-05 19:49 | 26.52350 | -79.18211 | 23235 ft | 458 kts | 26° |
| 2026-05-05 19:50 | 26.55047 | -79.16288 | 23544 ft | 460 kts | 26° |
| 2026-05-05 19:50 | 26.57754 | -79.14355 | 23813 ft | 463 kts | 26° |
| 2026-05-05 19:50 | 26.60469 | -79.12412 | 24082 ft | 464 kts | 26° |
| 2026-05-05 19:50 | 26.63188 | -79.10459 | 24362 ft | 466 kts | 26° |
| 2026-05-05 19:51 | 26.65917 | -79.08494 | 24638 ft | 467 kts | 26° |
| 2026-05-05 19:51 | 26.68654 | -79.06527 | 24908 ft | 468 kts | 26° |
| 2026-05-05 19:51 | 26.71398 | -79.04557 | 25186 ft | 469 kts | 26° |
| 2026-05-05 19:51 | 26.74148 | -79.02584 | 25458 ft | 470 kts | 26° |
| 2026-05-05 19:52 | 26.76905 | -79.00608 | 25752 ft | 471 kts | 26° |
| 2026-05-05 19:52 | 26.79672 | -78.98625 | 26029 ft | 473 kts | 26° |
| 2026-05-05 19:52 | 26.82446 | -78.96636 | 26305 ft | 474 kts | 26° |
| 2026-05-05 19:52 | 26.85227 | -78.94639 | 26585 ft | 476 kts | 26° |
| 2026-05-05 19:53 | 26.88012 | -78.92633 | 26861 ft | 477 kts | 26° |
| 2026-05-05 19:53 | 26.90806 | -78.90618 | 27136 ft | 478 kts | 26° |
| 2026-05-05 19:53 | 26.93607 | -78.88599 | 27423 ft | 479 kts | 26° |
| 2026-05-05 19:53 | 26.96402 | -78.86584 | 27807 ft | 477 kts | 26° |
| 2026-05-05 19:54 | 26.99186 | -78.84578 | 28195 ft | 475 kts | 26° |
| 2026-05-05 19:54 | 27.01967 | -78.82574 | 28585 ft | 473 kts | 26° |
| 2026-05-05 19:54 | 27.04700 | -78.80601 | 29001 ft | 472 kts | 26° |
| 2026-05-05 19:54 | 27.07457 | -78.78607 | 29384 ft | 471 kts | 26° |
| 2026-05-05 19:55 | 27.10204 | -78.76621 | 29772 ft | 469 kts | 26° |
| 2026-05-05 19:55 | 27.12944 | -78.74640 | 30150 ft | 468 kts | 26° |
| 2026-05-05 19:55 | 27.15673 | -78.72662 | 30478 ft | 466 kts | 25° |
| 2026-05-05 19:55 | 27.18393 | -78.70691 | 30806 ft | 464 kts | 25° |
| 2026-05-05 19:56 | 27.21102 | -78.68727 | 31148 ft | 462 kts | 25° |
| 2026-05-05 19:56 | 27.23800 | -78.66771 | 31478 ft | 461 kts | 25° |
| 2026-05-05 19:56 | 27.26530 | -78.64919 | 31801 ft | 453 kts | 18° |
| 2026-05-05 19:56 | 27.29402 | -78.63593 | 32115 ft | 441 kts | 9° |
| 2026-05-05 19:57 | 27.32348 | -78.62834 | 32434 ft | 430 kts | 0° |
| 2026-05-05 19:57 | 27.35300 | -78.62453 | 32757 ft | 426 kts | 359° |
| 2026-05-05 19:57 | 27.38242 | -78.62078 | 33095 ft | 424 kts | 359° |
| 2026-05-05 19:57 | 27.41160 | -78.61698 | 33438 ft | 422 kts | 359° |
| 2026-05-05 19:58 | 27.44066 | -78.61314 | 33768 ft | 419 kts | 359° |
| 2026-05-05 19:58 | 27.46956 | -78.60931 | 34098 ft | 417 kts | 359° |
| 2026-05-05 19:58 | 27.49838 | -78.60553 | 34378 ft | 415 kts | 359° |
| 2026-05-05 19:58 | 27.52704 | -78.60179 | 34634 ft | 414 kts | 359° |
| 2026-05-05 19:59 | 27.55558 | -78.59811 | 34888 ft | 412 kts | 358° |
| 2026-05-05 19:59 | 27.58407 | -78.59444 | 35031 ft | 412 kts | 358° |
| 2026-05-05 19:59 | 27.61254 | -78.59077 | 35080 ft | 412 kts | 358° |
| 2026-05-05 20:00 | 27.66944 | -78.58340 | 35071 ft | 411 kts | 358° |
| 2026-05-05 20:00 | 27.72624 | -78.57602 | 35076 ft | 411 kts | 358° |
| 2026-05-05 20:01 | 27.78273 | -78.56867 | 35075 ft | 411 kts | 358° |
| 2026-05-05 20:01 | 27.83955 | -78.56132 | 35077 ft | 411 kts | 358° |
| 2026-05-05 20:02 | 27.89647 | -78.55383 | 35109 ft | 412 kts | 358° |
| 2026-05-05 20:02 | 27.95342 | -78.54635 | 35107 ft | 412 kts | 358° |
| 2026-05-05 20:03 | 28.01034 | -78.53886 | 35104 ft | 412 kts | 358° |
| 2026-05-05 20:03 | 28.06727 | -78.53144 | 35102 ft | 412 kts | 358° |
| 2026-05-05 20:04 | 28.12416 | -78.52395 | 35099 ft | 412 kts | 358° |
| 2026-05-05 20:04 | 28.18111 | -78.51643 | 35135 ft | 412 kts | 358° |
| 2026-05-05 20:05 | 28.23745 | -78.50902 | 35101 ft | 409 kts | 358° |
| 2026-05-05 20:05 | 28.29402 | -78.50158 | 35101 ft | 409 kts | 358° |
| 2026-05-05 20:06 | 28.35065 | -78.49418 | 35099 ft | 410 kts | 358° |
| 2026-05-05 20:06 | 28.40743 | -78.48668 | 35100 ft | 410 kts | 358° |
| 2026-05-05 20:07 | 28.46408 | -78.47923 | 35102 ft | 410 kts | 358° |
| 2026-05-05 20:07 | 28.52081 | -78.47173 | 35123 ft | 410 kts | 358° |
| 2026-05-05 20:08 | 28.57738 | -78.46418 | 35115 ft | 409 kts | 358° |
| 2026-05-05 20:08 | 28.63392 | -78.45664 | 35111 ft | 409 kts | 358° |
| 2026-05-05 20:09 | 28.69039 | -78.44921 | 35111 ft | 408 kts | 358° |
| 2026-05-05 20:09 | 28.74680 | -78.44174 | 35109 ft | 408 kts | 358° |
| 2026-05-05 20:10 | 28.80316 | -78.43418 | 35130 ft | 407 kts | 357° |
| 2026-05-05 20:10 | 28.85944 | -78.42670 | 35119 ft | 407 kts | 357° |
| 2026-05-05 20:11 | 28.91525 | -78.41934 | 35121 ft | 406 kts | 357° |
| 2026-05-05 20:11 | 28.97144 | -78.41187 | 35109 ft | 407 kts | 357° |
| 2026-05-05 20:12 | 29.02763 | -78.40435 | 35112 ft | 406 kts | 358° |
| 2026-05-05 20:12 | 29.08361 | -78.39674 | 35107 ft | 403 kts | 357° |
| 2026-05-05 20:13 | 29.13928 | -78.38929 | 35107 ft | 403 kts | 357° |
| 2026-05-05 20:13 | 29.19496 | -78.38190 | 35106 ft | 403 kts | 357° |
| 2026-05-05 20:14 | 29.25071 | -78.37446 | 35107 ft | 403 kts | 357° |
| 2026-05-05 20:14 | 29.30644 | -78.36700 | 35108 ft | 403 kts | 357° |
| 2026-05-05 20:15 | 29.36222 | -78.35948 | 35130 ft | 403 kts | 357° |
| 2026-05-05 20:15 | 29.41792 | -78.35194 | 35126 ft | 403 kts | 357° |
| 2026-05-05 20:16 | 29.47363 | -78.34441 | 35126 ft | 402 kts | 356° |
| 2026-05-05 20:16 | 29.50124 | -78.34368 | 35124 ft | 391 kts | 348° |
| 2026-05-05 20:16 | 29.52838 | -78.34576 | 35123 ft | 391 kts | 348° |
| 2026-05-05 20:17 | 29.58274 | -78.34982 | 35126 ft | 392 kts | 348° |
| 2026-05-05 20:17 | 29.63709 | -78.35385 | 35120 ft | 390 kts | 348° |
| 2026-05-05 20:18 | 29.69094 | -78.35785 | 35110 ft | 390 kts | 348° |
| 2026-05-05 20:18 | 29.74515 | -78.36185 | 35111 ft | 391 kts | 348° |
| 2026-05-05 20:19 | 29.79943 | -78.36587 | 35119 ft | 391 kts | 348° |
| 2026-05-05 20:19 | 29.85373 | -78.36989 | 35119 ft | 391 kts | 348° |
| 2026-05-05 20:20 | 29.90796 | -78.37401 | 35147 ft | 391 kts | 348° |
| 2026-05-05 20:20 | 29.96226 | -78.37804 | 35138 ft | 391 kts | 348° |
| 2026-05-05 20:21 | 30.01659 | -78.38208 | 35132 ft | 391 kts | 348° |
| 2026-05-05 20:21 | 30.07094 | -78.38619 | 35129 ft | 392 kts | 348° |
| 2026-05-05 20:22 | 30.12537 | -78.39018 | 35132 ft | 393 kts | 350° |
| 2026-05-05 20:22 | 30.17145 | -78.38551 | 35129 ft | 404 kts | 358° |
| 2026-05-05 20:23 | 30.22712 | -78.37711 | 35132 ft | 403 kts | 358° |
| 2026-05-05 20:23 | 30.29188 | -78.36747 | 35130 ft | 404 kts | 358° |
| 2026-05-05 20:24 | 30.33854 | -78.36054 | 35128 ft | 404 kts | 358° |
| 2026-05-05 20:24 | 30.39425 | -78.35219 | 35128 ft | 404 kts | 358° |
| 2026-05-05 20:25 | 30.45003 | -78.34269 | 35154 ft | 407 kts | 1° |
| 2026-05-05 20:25 | 30.51486 | -78.32712 | 35141 ft | 410 kts | 2° |
| 2026-05-05 20:26 | 30.56159 | -78.31542 | 35140 ft | 410 kts | 2° |
| 2026-05-05 20:26 | 30.61741 | -78.30203 | 35137 ft | 410 kts | 2° |
| 2026-05-05 20:27 | 30.67329 | -78.28902 | 35137 ft | 410 kts | 1° |
| 2026-05-05 20:27 | 30.72884 | -78.27612 | 35143 ft | 410 kts | 2° |
| 2026-05-05 20:28 | 30.78470 | -78.26310 | 35132 ft | 409 kts | 2° |
| 2026-05-05 20:28 | 30.84060 | -78.24999 | 35131 ft | 410 kts | 2° |
| 2026-05-05 20:29 | 30.89661 | -78.23672 | 35130 ft | 411 kts | 2° |
| 2026-05-05 20:29 | 30.95271 | -78.22345 | 35132 ft | 411 kts | 1° |
| 2026-05-05 20:30 | 31.00886 | -78.21087 | 35157 ft | 411 kts | 1° |
| 2026-05-05 20:30 | 31.06507 | -78.19870 | 35151 ft | 411 kts | 1° |
| 2026-05-05 20:31 | 31.12132 | -78.18637 | 35142 ft | 412 kts | 1° |
| 2026-05-05 20:31 | 31.17770 | -78.17383 | 35138 ft | 412 kts | 1° |
| 2026-05-05 20:32 | 31.23404 | -78.16115 | 35146 ft | 412 kts | 1° |
| 2026-05-05 20:32 | 31.29041 | -78.14857 | 35140 ft | 412 kts | 2° |
| 2026-05-05 20:33 | 31.34668 | -78.13603 | 35140 ft | 412 kts | 2° |
| 2026-05-05 20:33 | 31.40272 | -78.12350 | 35140 ft | 413 kts | 2° |
| 2026-05-05 20:34 | 31.45917 | -78.11067 | 35139 ft | 414 kts | 2° |
| 2026-05-05 20:34 | 31.51565 | -78.09698 | 35143 ft | 415 kts | 3° |
| 2026-05-05 20:35 | 31.57205 | -78.08312 | 35133 ft | 413 kts | 3° |
| 2026-05-05 20:35 | 31.62839 | -78.06940 | 35133 ft | 414 kts | 3° |
| 2026-05-05 20:36 | 31.68488 | -78.05572 | 35138 ft | 414 kts | 3° |
| 2026-05-05 20:36 | 31.74140 | -78.04207 | 35140 ft | 415 kts | 3° |
| 2026-05-05 20:37 | 31.79797 | -78.02833 | 35159 ft | 415 kts | 3° |
| 2026-05-05 20:37 | 31.85413 | -78.01468 | 35151 ft | 415 kts | 3° |
| 2026-05-05 20:38 | 31.91068 | -78.00083 | 35150 ft | 415 kts | 3° |
| 2026-05-05 20:38 | 31.96718 | -77.98715 | 35148 ft | 415 kts | 3° |
| 2026-05-05 20:39 | 32.02375 | -77.97336 | 35149 ft | 415 kts | 3° |
| 2026-05-05 20:39 | 32.08014 | -77.95946 | 35135 ft | 412 kts | 4° |
| 2026-05-05 20:40 | 32.13615 | -77.94570 | 35153 ft | 411 kts | 4° |
| 2026-05-05 20:40 | 32.19209 | -77.93197 | 35148 ft | 410 kts | 4° |
| 2026-05-05 20:41 | 32.24800 | -77.91834 | 35152 ft | 410 kts | 4° |
| 2026-05-05 20:41 | 32.30385 | -77.90468 | 35149 ft | 410 kts | 4° |
| 2026-05-05 20:42 | 32.35947 | -77.89101 | 35143 ft | 407 kts | 4° |
| 2026-05-05 20:42 | 32.41451 | -77.87743 | 35140 ft | 407 kts | 4° |
| 2026-05-05 20:43 | 32.46995 | -77.86377 | 35141 ft | 407 kts | 4° |
| 2026-05-05 20:43 | 32.52545 | -77.85009 | 35142 ft | 407 kts | 4° |
| 2026-05-05 20:44 | 32.58093 | -77.83637 | 35158 ft | 407 kts | 4° |
| 2026-05-05 20:44 | 32.63645 | -77.82272 | 35151 ft | 407 kts | 4° |
| 2026-05-05 20:45 | 32.71959 | -77.80204 | 35150 ft | 407 kts | 4° |
| 2026-05-05 20:45 | 32.77502 | -77.78819 | 35144 ft | 407 kts | 4° |
| 2026-05-05 20:46 | 32.83048 | -77.77440 | 35141 ft | 407 kts | 4° |
| 2026-05-05 20:46 | 32.88592 | -77.76069 | 35141 ft | 407 kts | 4° |
| 2026-05-05 20:47 | 32.94139 | -77.74689 | 35139 ft | 407 kts | 4° |
| 2026-05-05 20:47 | 32.99690 | -77.73304 | 35140 ft | 408 kts | 4° |
| 2026-05-05 20:48 | 33.05206 | -77.71924 | 35141 ft | 408 kts | 4° |
| 2026-05-05 20:48 | 33.10755 | -77.70537 | 35161 ft | 408 kts | 4° |
| 2026-05-05 20:49 | 33.16306 | -77.69142 | 35149 ft | 407 kts | 4° |
| 2026-05-05 20:49 | 33.21844 | -77.67756 | 35145 ft | 407 kts | 4° |
| 2026-05-05 20:50 | 33.27384 | -77.66360 | 35146 ft | 407 kts | 4° |
| 2026-05-05 20:50 | 33.32922 | -77.64966 | 35141 ft | 407 kts | 4° |
| 2026-05-05 20:51 | 33.38462 | -77.63585 | 35147 ft | 407 kts | 4° |
| 2026-05-05 20:51 | 33.44001 | -77.62187 | 35145 ft | 407 kts | 5° |
| 2026-05-05 20:52 | 33.49533 | -77.60779 | 35142 ft | 406 kts | 5° |
| 2026-05-05 20:52 | 33.55063 | -77.59378 | 35140 ft | 406 kts | 4° |
| 2026-05-05 20:53 | 33.60597 | -77.58033 | 35143 ft | 404 kts | 3° |
| 2026-05-05 20:53 | 33.66112 | -77.56976 | 35125 ft | 401 kts | 2° |
| 2026-05-05 20:54 | 33.71634 | -77.55994 | 35121 ft | 401 kts | 2° |
| 2026-05-05 20:54 | 33.77159 | -77.54961 | 35123 ft | 402 kts | 2° |
| 2026-05-05 20:55 | 33.82691 | -77.53890 | 35124 ft | 403 kts | 2° |
| 2026-05-05 20:55 | 33.88189 | -77.52823 | 35139 ft | 403 kts | 2° |
| 2026-05-05 20:56 | 33.93733 | -77.51744 | 35134 ft | 404 kts | 2° |
| 2026-05-05 20:56 | 33.99284 | -77.50671 | 35135 ft | 404 kts | 2° |
| 2026-05-05 20:57 | 34.04841 | -77.49601 | 35134 ft | 404 kts | 2° |
| 2026-05-05 20:57 | 34.10395 | -77.48514 | 35156 ft | 404 kts | 2° |
| 2026-05-05 20:58 | 34.15951 | -77.47425 | 35145 ft | 405 kts | 2° |
| 2026-05-05 20:58 | 34.21508 | -77.46347 | 35146 ft | 405 kts | 2° |
| 2026-05-05 20:59 | 34.27070 | -77.45263 | 35144 ft | 405 kts | 2° |
| 2026-05-05 20:59 | 34.32633 | -77.44175 | 35142 ft | 405 kts | 2° |
| 2026-05-05 21:00 | 34.38198 | -77.43086 | 35153 ft | 405 kts | 2° |
| 2026-05-05 21:00 | 34.43736 | -77.42001 | 35155 ft | 406 kts | 2° |
| 2026-05-05 21:01 | 34.49285 | -77.40524 | 35144 ft | 417 kts | 14° |
| 2026-05-05 21:01 | 34.54554 | -77.37390 | 35141 ft | 423 kts | 19° |
| 2026-05-05 21:02 | 34.59801 | -77.34147 | 35155 ft | 423 kts | 19° |
| 2026-05-05 21:02 | 34.65053 | -77.30904 | 35143 ft | 423 kts | 19° |
| 2026-05-05 21:03 | 34.70301 | -77.27662 | 35141 ft | 423 kts | 19° |
| 2026-05-05 21:03 | 34.75552 | -77.24412 | 35141 ft | 423 kts | 19° |
| 2026-05-05 21:04 | 34.80800 | -77.21160 | 35169 ft | 424 kts | 19° |
| 2026-05-05 21:04 | 34.86047 | -77.17900 | 35155 ft | 422 kts | 18° |
| 2026-05-05 21:05 | 34.91271 | -77.14648 | 35135 ft | 422 kts | 18° |
| 2026-05-05 21:05 | 34.96503 | -77.11394 | 35133 ft | 422 kts | 18° |
| 2026-05-05 21:06 | 35.01734 | -77.08129 | 35134 ft | 423 kts | 19° |
| 2026-05-05 21:06 | 35.06974 | -77.04856 | 35144 ft | 423 kts | 18° |
| 2026-05-05 21:07 | 35.12218 | -77.01579 | 35138 ft | 424 kts | 19° |
| 2026-05-05 21:07 | 35.17464 | -76.98287 | 35139 ft | 424 kts | 19° |
| 2026-05-05 21:08 | 35.22715 | -76.94995 | 35137 ft | 424 kts | 19° |
| 2026-05-05 21:08 | 35.27974 | -76.91731 | 35128 ft | 424 kts | 18° |
| 2026-05-05 21:09 | 35.33223 | -76.88547 | 35125 ft | 424 kts | 18° |
| 2026-05-05 21:09 | 35.38540 | -76.85322 | 35144 ft | 424 kts | 18° |
| 2026-05-05 21:10 | 35.43779 | -76.82132 | 35142 ft | 423 kts | 18° |
| 2026-05-05 21:10 | 35.49045 | -76.78916 | 35140 ft | 422 kts | 18° |
| 2026-05-05 21:11 | 35.54308 | -76.75701 | 35143 ft | 422 kts | 18° |
| 2026-05-05 21:11 | 35.59571 | -76.72475 | 35135 ft | 423 kts | 18° |
| 2026-05-05 21:12 | 35.64836 | -76.69231 | 35125 ft | 423 kts | 18° |
| 2026-05-05 21:12 | 35.70109 | -76.65995 | 35124 ft | 424 kts | 18° |
| 2026-05-05 21:13 | 35.74494 | -76.63300 | 35117 ft | 424 kts | 18° |
| 2026-05-05 21:13 | 35.79764 | -76.60052 | 35122 ft | 424 kts | 18° |
| 2026-05-05 21:14 | 35.85045 | -76.56789 | 35116 ft | 425 kts | 18° |
| 2026-05-05 21:14 | 35.90322 | -76.53517 | 35096 ft | 425 kts | 19° |
| 2026-05-05 21:15 | 35.95556 | -76.50068 | 35107 ft | 427 kts | 20° |
| 2026-05-05 21:15 | 36.00752 | -76.46501 | 35113 ft | 427 kts | 21° |
| 2026-05-05 21:16 | 36.05956 | -76.42937 | 35104 ft | 427 kts | 21° |
| 2026-05-05 21:16 | 36.11168 | -76.39409 | 35101 ft | 427 kts | 20° |
| 2026-05-05 21:17 | 36.16387 | -76.35884 | 35089 ft | 427 kts | 20° |
| 2026-05-05 21:17 | 36.21600 | -76.32355 | 35094 ft | 427 kts | 20° |
| 2026-05-05 21:18 | 36.26816 | -76.28814 | 35085 ft | 428 kts | 20° |
| 2026-05-05 21:18 | 36.32037 | -76.25260 | 35082 ft | 428 kts | 21° |
| 2026-05-05 21:19 | 36.37259 | -76.21709 | 35080 ft | 428 kts | 20° |
| 2026-05-05 21:19 | 36.42443 | -76.18170 | 35081 ft | 428 kts | 21° |
| 2026-05-05 21:20 | 36.47668 | -76.14598 | 35085 ft | 429 kts | 20° |
| 2026-05-05 21:20 | 36.52899 | -76.11027 | 35094 ft | 429 kts | 21° |
| 2026-05-05 21:21 | 36.58121 | -76.07450 | 35058 ft | 428 kts | 21° |
| 2026-05-05 21:21 | 36.63329 | -76.03868 | 35049 ft | 428 kts | 21° |
| 2026-05-05 21:22 | 36.68538 | -76.00286 | 35057 ft | 428 kts | 21° |
| 2026-05-05 21:22 | 36.73751 | -75.96698 | 35041 ft | 428 kts | 21° |
| 2026-05-05 21:23 | 36.78959 | -75.93108 | 35058 ft | 428 kts | 21° |
| 2026-05-05 21:23 | 36.84168 | -75.89513 | 35064 ft | 428 kts | 21° |
| 2026-05-05 21:24 | 36.89382 | -75.85901 | 35060 ft | 429 kts | 21° |
| 2026-05-05 21:24 | 36.94602 | -75.82283 | 35050 ft | 429 kts | 21° |
| 2026-05-05 21:25 | 36.99830 | -75.78661 | 35036 ft | 430 kts | 21° |
| 2026-05-05 21:25 | 37.05108 | -75.75182 | 35048 ft | 424 kts | 14° |
| 2026-05-05 21:26 | 37.10717 | -75.73455 | 35055 ft | 413 kts | 3° |
| 2026-05-05 21:26 | 37.16354 | -75.72271 | 35050 ft | 414 kts | 3° |
| 2026-05-05 21:27 | 37.22044 | -75.71053 | 35045 ft | 415 kts | 4° |
| 2026-05-05 21:27 | 37.27735 | -75.69827 | 35046 ft | 415 kts | 4° |
| 2026-05-05 21:28 | 37.33435 | -75.68604 | 35059 ft | 416 kts | 3° |
| 2026-05-05 21:28 | 37.39147 | -75.67381 | 35048 ft | 416 kts | 4° |
| 2026-05-05 21:29 | 37.44858 | -75.66151 | 35038 ft | 417 kts | 4° |
| 2026-05-05 21:29 | 37.50578 | -75.64924 | 35038 ft | 417 kts | 3° |
| 2026-05-05 21:30 | 37.56263 | -75.63704 | 35038 ft | 417 kts | 4° |
| 2026-05-05 21:30 | 37.61991 | -75.62461 | 35038 ft | 417 kts | 4° |
| 2026-05-05 21:31 | 37.67722 | -75.61274 | 35039 ft | 414 kts | 359° |
| 2026-05-05 21:31 | 37.73400 | -75.61523 | 35040 ft | 407 kts | 350° |
| 2026-05-05 21:32 | 37.79007 | -75.62109 | 35041 ft | 407 kts | 351° |
| 2026-05-05 21:32 | 37.84704 | -75.61274 | 35040 ft | 424 kts | 12° |
| 2026-05-05 21:33 | 37.87436 | -75.59769 | 35038 ft | 434 kts | 23° |
| 2026-05-05 21:33 | 37.89978 | -75.57651 | 35038 ft | 439 kts | 27° |
| 2026-05-05 21:33 | 37.95010 | -75.53260 | 35035 ft | 439 kts | 27° |
| 2026-05-05 21:34 | 38.00047 | -75.48866 | 35038 ft | 440 kts | 27° |
| 2026-05-05 21:34 | 38.05117 | -75.44511 | 35018 ft | 437 kts | 22° |
| 2026-05-05 21:35 | 38.10552 | -75.41218 | 35030 ft | 432 kts | 18° |
| 2026-05-05 21:35 | 38.15980 | -75.38045 | 35016 ft | 433 kts | 18° |
| 2026-05-05 21:36 | 38.21443 | -75.34830 | 35013 ft | 433 kts | 18° |
| 2026-05-05 21:36 | 38.26919 | -75.31618 | 35031 ft | 434 kts | 18° |
| 2026-05-05 21:37 | 38.32406 | -75.28396 | 35027 ft | 434 kts | 18° |
| 2026-05-05 21:37 | 38.37895 | -75.25162 | 35035 ft | 435 kts | 18° |
| 2026-05-05 21:38 | 38.43382 | -75.21920 | 35043 ft | 435 kts | 18° |
| 2026-05-05 21:38 | 38.48874 | -75.18670 | 35025 ft | 435 kts | 18° |
| 2026-05-05 21:39 | 38.54372 | -75.15416 | 35012 ft | 436 kts | 18° |
| 2026-05-05 21:39 | 38.59833 | -75.12148 | 35013 ft | 437 kts | 19° |
| 2026-05-05 21:40 | 38.65282 | -75.08674 | 34766 ft | 438 kts | 20° |
| 2026-05-05 21:40 | 38.67997 | -75.06899 | 34503 ft | 438 kts | 20° |
| 2026-05-05 21:40 | 38.70711 | -75.05120 | 34276 ft | 437 kts | 20° |
| 2026-05-05 21:41 | 38.73418 | -75.03355 | 34029 ft | 437 kts | 20° |
| 2026-05-05 21:41 | 38.76138 | -75.01597 | 33209 ft | 440 kts | 20° |
| 2026-05-05 21:41 | 38.78883 | -74.99841 | 32441 ft | 442 kts | 20° |
| 2026-05-05 21:41 | 38.81647 | -74.98077 | 31599 ft | 445 kts | 21° |
| 2026-05-05 21:42 | 38.84427 | -74.96293 | 30760 ft | 449 kts | 21° |
| 2026-05-05 21:42 | 38.87242 | -74.94481 | 29800 ft | 455 kts | 22° |
| 2026-05-05 21:42 | 38.90085 | -74.92649 | 28838 ft | 458 kts | 22° |
| 2026-05-05 21:42 | 38.92943 | -74.90800 | 27869 ft | 461 kts | 22° |
| 2026-05-05 21:43 | 38.95822 | -74.88942 | 26859 ft | 466 kts | 23° |
| 2026-05-05 21:43 | 38.98731 | -74.87063 | 25786 ft | 471 kts | 22° |
| 2026-05-05 21:43 | 39.01688 | -74.85151 | 24763 ft | 477 kts | 23° |
| 2026-05-05 21:43 | 39.04635 | -74.83411 | 24157 ft | 468 kts | 17° |
| 2026-05-05 21:44 | 39.07739 | -74.82275 | 23398 ft | 460 kts | 7° |
| 2026-05-05 21:44 | 39.10933 | -74.81828 | 22631 ft | 451 kts | 357° |
| 2026-05-05 21:44 | 39.13991 | -74.82021 | 21950 ft | 442 kts | 348° |
| 2026-05-05 21:44 | 39.16957 | -74.82805 | 21276 ft | 432 kts | 340° |
| 2026-05-05 21:45 | 39.19828 | -74.83896 | 20625 ft | 427 kts | 339° |
| 2026-05-05 21:45 | 39.22658 | -74.84967 | 19971 ft | 423 kts | 340° |
| 2026-05-05 21:45 | 39.25470 | -74.86025 | 19320 ft | 419 kts | 339° |
| 2026-05-05 21:45 | 39.28262 | -74.87077 | 18688 ft | 417 kts | 340° |
| 2026-05-05 21:46 | 39.31040 | -74.88124 | 18116 ft | 413 kts | 340° |
| 2026-05-05 21:46 | 39.33785 | -74.89155 | 17505 ft | 409 kts | 340° |
| 2026-05-05 21:46 | 39.36508 | -74.90183 | 16903 ft | 406 kts | 340° |
| 2026-05-05 21:46 | 39.39218 | -74.91206 | 16297 ft | 404 kts | 339° |
| 2026-05-05 21:47 | 39.41905 | -74.92219 | 15779 ft | 400 kts | 339° |
| 2026-05-05 21:47 | 39.44560 | -74.93222 | 15251 ft | 395 kts | 339° |
| 2026-05-05 21:47 | 39.47185 | -74.94217 | 14704 ft | 391 kts | 339° |
| 2026-05-05 21:47 | 39.49789 | -74.95202 | 14168 ft | 388 kts | 339° |
| 2026-05-05 21:48 | 39.52323 | -74.96212 | 13573 ft | 383 kts | 334° |
| 2026-05-05 21:48 | 39.54699 | -74.97675 | 12990 ft | 372 kts | 324° |
| 2026-05-05 21:48 | 39.56810 | -74.99537 | 12404 ft | 365 kts | 319° |
| 2026-05-05 21:48 | 39.58857 | -75.01450 | 11815 ft | 361 kts | 319° |
| 2026-05-05 21:49 | 39.60884 | -75.03338 | 11247 ft | 357 kts | 319° |
| 2026-05-05 21:49 | 39.62863 | -75.05175 | 11069 ft | 342 kts | 319° |
| 2026-05-05 21:49 | 39.64869 | -75.06689 | 10960 ft | 326 kts | 330° |
| 2026-05-05 21:49 | 39.66968 | -75.07539 | 10803 ft | 309 kts | 342° |
| 2026-05-05 21:50 | 39.69098 | -75.07788 | 10513 ft | 309 kts | 354° |
| 2026-05-05 21:50 | 39.71238 | -75.07443 | 10264 ft | 312 kts | 7° |
| 2026-05-05 21:50 | 39.73286 | -75.06487 | 10031 ft | 314 kts | 21° |
| 2026-05-05 21:50 | 39.75119 | -75.04963 | 9853 ft | 312 kts | 36° |
| 2026-05-05 21:51 | 39.76629 | -75.03035 | 9727 ft | 307 kts | 44° |
| 2026-05-05 21:51 | 39.78059 | -75.00998 | 9641 ft | 305 kts | 44° |
| 2026-05-05 21:51 | 39.79491 | -74.98961 | 9445 ft | 305 kts | 44° |
| 2026-05-05 21:51 | 39.80926 | -74.96918 | 8901 ft | 307 kts | 44° |
| 2026-05-05 21:52 | 39.83448 | -74.92646 | 7943 ft | 295 kts | 62° |
| 2026-05-05 21:52 | 39.84156 | -74.90112 | 7506 ft | 296 kts | 77° |
| 2026-05-05 21:52 | 39.84655 | -74.87552 | 7238 ft | 289 kts | 76° |
| 2026-05-05 21:53 | 39.85400 | -74.85152 | 6880 ft | 285 kts | 53° |
| 2026-05-05 21:53 | 39.86792 | -74.83375 | 6325 ft | 281 kts | 26° |
| 2026-05-05 21:53 | 39.88586 | -74.82517 | 5672 ft | 270 kts | 359° |
| 2026-05-05 21:53 | 39.90383 | -74.82640 | 5341 ft | 249 kts | 336° |
| 2026-05-05 21:54 | 39.91901 | -74.83542 | 5336 ft | 238 kts | 317° |
| 2026-05-05 21:54 | 39.93063 | -74.85016 | 5317 ft | 230 kts | 298° |
| 2026-05-05 21:54 | 39.93775 | -74.86836 | 5221 ft | 222 kts | 281° |
| 2026-05-05 21:54 | 39.94003 | -74.88780 | 5010 ft | 212 kts | 264° |
| 2026-05-05 21:55 | 39.93777 | -74.90621 | 4773 ft | 201 kts | 251° |
| 2026-05-05 21:55 | 39.93432 | -74.92373 | 4529 ft | 199 kts | 251° |
| 2026-05-05 21:55 | 39.93090 | -74.94115 | 4248 ft | 199 kts | 251° |
| 2026-05-05 21:55 | 39.92753 | -74.95830 | 3992 ft | 194 kts | 251° |
| 2026-05-05 21:56 | 39.92422 | -74.97520 | 3729 ft | 186 kts | 251° |
| 2026-05-05 21:56 | 39.92108 | -74.99120 | 3478 ft | 180 kts | 250° |
| 2026-05-05 21:56 | 39.91802 | -75.00667 | 3268 ft | 179 kts | 250° |
| 2026-05-05 21:56 | 39.91493 | -75.02236 | 3032 ft | 179 kts | 250° |
| 2026-05-05 21:57 | 39.91182 | -75.03808 | 2791 ft | 178 kts | 250° |
| 2026-05-05 21:57 | 39.90873 | -75.05376 | 2563 ft | 179 kts | 250° |
| 2026-05-05 21:57 | 39.90576 | -75.06891 | 2334 ft | 166 kts | 250° |
| 2026-05-05 21:57 | 39.90306 | -75.08264 | 2137 ft | 149 kts | 249° |
| 2026-05-05 21:58 | 39.90054 | -75.09534 | 1951 ft | 143 kts | 249° |
| 2026-05-05 21:58 | 39.89809 | -75.10769 | 1776 ft | 139 kts | 249° |
| 2026-05-05 21:58 | 39.89559 | -75.11982 | 1642 ft | 139 kts | 248° |
| 2026-05-05 21:58 | 39.89328 | -75.13205 | 1476 ft | 139 kts | 250° |
| 2026-05-05 21:59 | 39.89103 | -75.14423 | 1222 ft | 138 kts | 249° |
| 2026-05-05 21:59 | 39.88874 | -75.15628 | 1063 ft | 137 kts | 249° |
| 2026-05-05 21:59 | 39.88627 | -75.16832 | 882 ft | 138 kts | 248° |
| 2026-05-05 21:59 | 39.88375 | -75.18048 | 692 ft | 137 kts | 248° |
| 2026-05-05 22:00 | 39.88150 | -75.19251 | 572 ft | 137 kts | 248° |
| 2026-05-05 22:00 | 39.87904 | -75.20442 | 391 ft | 137 kts | 247° |
| 2026-05-05 22:00 | 39.87663 | -75.21633 | 195 ft | 134 kts | 246° |
| 2026-05-05 22:00 | 39.87419 | -75.22812 | 41 ft | 129 kts | 248° |
| 2026-05-05 22:01 | 39.87221 | -75.23777 | 26 ft | 88 kts | 255° |
| 2026-05-05 22:01 | 39.87105 | -75.24356 | 26 ft | 51 kts | 256° |
| 2026-05-05 22:01 | 39.87030 | -75.24755 | 26 ft | 41 kts | 255° |
| 2026-05-05 22:01 | 39.87000 | -75.25023 | 26 ft | 21 kts | 275° |
| 2026-05-05 22:02 | 39.87031 | -75.25183 | 28 ft | 15 kts | 302° |
| 2026-05-05 22:02 | 39.87092 | -75.25222 | 27 ft | 7 kts | 6° |
| 2026-05-05 22:02 | 39.87105 | -75.25218 | 27 ft | 1 kts | 14° |
| 2026-05-05 22:02 | 39.87121 | -75.25211 | 28 ft | 4 kts | 19° |
| 2026-05-05 22:03 | 39.87154 | -75.25200 | 25 ft | 6 kts | 6° |
| 2026-05-05 22:03 | 39.87179 | -75.25198 | 28 ft | 4 kts | 3° |
| 2026-05-05 22:03 | 39.87203 | -75.25197 | 28 ft | 2 kts | 2° |
| 2026-05-05 22:03 | 39.87212 | -75.25196 | 28 ft | 1 kts | 2° |